sensor_id;sensor_type;location;lat;lon;timestamp;pressure;altitude;pressure_sealevel;temperature;humidity
75497;BME280;64074;47.540;19.072;2023-09-18T00:02:18;100857.09;;;20.94;71.61
75497;BME280;64074;47.540;19.072;2023-09-18T00:05:21;100857.09;;;20.94;71.23
75497;BME280;64074;47.540;19.072;2023-09-18T00:08:26;100851.94;;;20.92;71.10
75497;BME280;64074;47.540;19.072;2023-09-18T00:11:30;100850.34;;;20.91;70.96
75497;BME280;64074;47.540;19.072;2023-09-18T00:14:38;100845.81;;;20.83;71.11
75497;BME280;64074;47.540;19.072;2023-09-18T00:17:41;100845.59;;;20.76;71.05
75497;BME280;64074;47.540;19.072;2023-09-18T00:20:45;100844.59;;;20.68;71.40
75497;BME280;64074;47.540;19.072;2023-09-18T00:23:52;100838.38;;;20.31;72.49
75497;BME280;64074;47.540;19.072;2023-09-18T00:26:55;100831.66;;;20.56;72.05
75497;BME280;64074;47.540;19.072;2023-09-18T00:29:58;100840.13;;;20.64;71.26
75497;BME280;64074;47.540;19.072;2023-09-18T00:33:02;100839.69;;;20.62;71.21
75497;BME280;64074;47.540;19.072;2023-09-18T00:36:05;100843.03;;;20.83;70.55
75497;BME280;64074;47.540;19.072;2023-09-18T00:39:09;100840.72;;;20.85;70.51
75497;BME280;64074;47.540;19.072;2023-09-18T00:42:12;100843.84;;;20.83;70.54
75497;BME280;64074;47.540;19.072;2023-09-18T00:45:17;100837.41;;;20.79;70.51
75497;BME280;64074;47.540;19.072;2023-09-18T00:48:21;100835.72;;;20.75;70.69
75497;BME280;64074;47.540;19.072;2023-09-18T00:51:24;100841.94;;;20.72;70.92
75497;BME280;64074;47.540;19.072;2023-09-18T00:54:29;100835.97;;;20.70;70.93
75497;BME280;64074;47.540;19.072;2023-09-18T00:57:34;100841.75;;;20.65;71.13
75497;BME280;64074;47.540;19.072;2023-09-18T01:00:39;100840.03;;;20.60;71.14
75497;BME280;64074;47.540;19.072;2023-09-18T01:03:44;100833.97;;;20.54;71.43
75497;BME280;64074;47.540;19.072;2023-09-18T01:06:47;100842.56;;;20.53;71.18
75497;BME280;64074;47.540;19.072;2023-09-18T01:09:52;100838.84;;;20.33;71.65
75497;BME280;64074;47.540;19.072;2023-09-18T01:13:02;100839.56;;;20.18;71.94
75497;BME280;64074;47.540;19.072;2023-09-18T01:20:03;100836.97;;;20.49;71.22
75497;BME280;64074;47.540;19.072;2023-09-18T01:23:08;100835.00;;;20.50;71.00
75497;BME280;64074;47.540;19.072;2023-09-18T01:26:11;100834.88;;;20.58;70.50
75497;BME280;64074;47.540;19.072;2023-09-18T01:29:15;100831.44;;;20.09;71.83
75497;BME280;64074;47.540;19.072;2023-09-18T01:32:24;100832.09;;;20.06;72.00
75497;BME280;64074;47.540;19.072;2023-09-18T01:35:31;100824.91;;;20.02;71.95
75497;BME280;64074;47.540;19.072;2023-09-18T01:38:37;100834.78;;;19.90;72.62
75497;BME280;64074;47.540;19.072;2023-09-18T01:41:41;100835.56;;;20.15;71.59
75497;BME280;64074;47.540;19.072;2023-09-18T01:44:46;100833.34;;;20.21;71.21
75497;BME280;64074;47.540;19.072;2023-09-18T01:47:50;100830.09;;;20.31;71.26
75497;BME280;64074;47.540;19.072;2023-09-18T01:50:54;100835.00;;;20.50;70.40
75497;BME280;64074;47.540;19.072;2023-09-18T01:53:58;100827.53;;;20.50;70.03
75497;BME280;64074;47.540;19.072;2023-09-18T01:57:03;100835.72;;;20.47;70.21
75497;BME280;64074;47.540;19.072;2023-09-18T02:00:06;100829.66;;;20.41;70.35
75497;BME280;64074;47.540;19.072;2023-09-18T02:03:16;100831.84;;;20.36;70.80
75497;BME280;64074;47.540;19.072;2023-09-18T02:06:38;100831.25;;;20.30;70.68
75497;BME280;64074;47.540;19.072;2023-09-18T02:09:42;100825.19;;;20.24;70.97
75497;BME280;64074;47.540;19.072;2023-09-18T02:12:47;100834.50;;;20.20;71.23
75497;BME280;64074;47.540;19.072;2023-09-18T02:15:50;100836.81;;;20.18;71.49
75497;BME280;64074;47.540;19.072;2023-09-18T02:18:54;100837.94;;;20.17;71.38
75497;BME280;64074;47.540;19.072;2023-09-18T02:21:59;100833.94;;;20.14;71.45
75497;BME280;64074;47.540;19.072;2023-09-18T02:25:02;100829.94;;;20.12;71.40
75497;BME280;64074;47.540;19.072;2023-09-18T02:28:07;100841.91;;;19.91;72.28
75497;BME280;64074;47.540;19.072;2023-09-18T02:31:11;100833.19;;;19.89;72.40
75497;BME280;64074;47.540;19.072;2023-09-18T02:34:15;100836.72;;;20.02;72.12
75497;BME280;64074;47.540;19.072;2023-09-18T02:37:18;100832.81;;;20.03;71.81
75497;BME280;64074;47.540;19.072;2023-09-18T02:40:22;100846.13;;;20.01;73.27
75497;BME280;64074;47.540;19.072;2023-09-18T02:43:26;100843.72;;;20.00;74.48
75497;BME280;64074;47.540;19.072;2023-09-18T02:46:29;100847.16;;;19.96;74.88
75497;BME280;64074;47.540;19.072;2023-09-18T02:49:32;100843.59;;;19.96;75.05
75497;BME280;64074;47.540;19.072;2023-09-18T02:52:37;100842.25;;;19.90;75.35
75497;BME280;64074;47.540;19.072;2023-09-18T02:55:40;100839.94;;;19.92;75.44
75497;BME280;64074;47.540;19.072;2023-09-18T02:58:43;100845.09;;;19.93;75.48
75497;BME280;64074;47.540;19.072;2023-09-18T03:01:46;100846.03;;;19.85;75.90
75497;BME280;64074;47.540;19.072;2023-09-18T03:04:50;100846.13;;;19.77;75.90
75497;BME280;64074;47.540;19.072;2023-09-18T03:07:53;100852.69;;;19.84;75.91
75497;BME280;64074;47.540;19.072;2023-09-18T03:10:56;100842.13;;;19.86;75.98
75497;BME280;64074;47.540;19.072;2023-09-18T03:14:00;100844.88;;;19.86;75.68
75497;BME280;64074;47.540;19.072;2023-09-18T03:17:03;100840.06;;;19.83;75.31
75497;BME280;64074;47.540;19.072;2023-09-18T03:20:08;100838.78;;;19.56;76.36
75497;BME280;64074;47.540;19.072;2023-09-18T03:23:13;100836.88;;;19.69;75.53
75497;BME280;64074;47.540;19.072;2023-09-18T03:26:17;100829.88;;;19.72;75.07
75497;BME280;64074;47.540;19.072;2023-09-18T03:29:24;100838.81;;;19.69;75.11
75497;BME280;64074;47.540;19.072;2023-09-18T03:32:27;100833.31;;;19.69;74.64
75497;BME280;64074;47.540;19.072;2023-09-18T03:35:31;100830.91;;;19.67;74.26
75497;BME280;64074;47.540;19.072;2023-09-18T03:38:36;100826.78;;;19.61;74.03
75497;BME280;64074;47.540;19.072;2023-09-18T03:41:40;100822.72;;;19.46;74.47
75497;BME280;64074;47.540;19.072;2023-09-18T03:44:43;100825.72;;;19.53;73.94
75497;BME280;64074;47.540;19.072;2023-09-18T03:47:47;100827.00;;;19.56;73.59
75497;BME280;64074;47.540;19.072;2023-09-18T03:50:54;100827.00;;;19.56;73.12
75497;BME280;64074;47.540;19.072;2023-09-18T03:53:57;100832.50;;;19.56;72.91
75497;BME280;64074;47.540;19.072;2023-09-18T03:57:00;100830.88;;;19.55;73.09
75497;BME280;64074;47.540;19.072;2023-09-18T04:00:05;100828.47;;;19.53;73.19
75497;BME280;64074;47.540;19.072;2023-09-18T04:03:16;100822.97;;;19.53;72.98
75497;BME280;64074;47.540;19.072;2023-09-18T04:06:23;100817.47;;;19.53;72.72
75497;BME280;64074;47.540;19.072;2023-09-18T04:09:27;100818.75;;;19.56;72.49
75497;BME280;64074;47.540;19.072;2023-09-18T04:12:30;100818.25;;;19.42;73.10
75497;BME280;64074;47.540;19.072;2023-09-18T04:15:33;100814.56;;;19.25;73.80
75497;BME280;64074;47.540;19.072;2023-09-18T04:18:41;100812.75;;;19.42;72.84
75497;BME280;64074;47.540;19.072;2023-09-18T04:21:45;100815.28;;;19.47;72.89
75497;BME280;64074;47.540;19.072;2023-09-18T04:24:48;100814.13;;;19.48;72.52
75497;BME280;64074;47.540;19.072;2023-09-18T04:27:52;100802.44;;;19.51;72.44
75497;BME280;64074;47.540;19.072;2023-09-18T04:30:56;100816.09;;;19.47;72.46
75497;BME280;64074;47.540;19.072;2023-09-18T04:34:01;100812.88;;;19.45;72.59
75497;BME280;64074;47.540;19.072;2023-09-18T04:37:06;100815.28;;;19.34;73.07
75497;BME280;64074;47.540;19.072;2023-09-18T04:40:10;100814.81;;;19.32;72.90
75497;BME280;64074;47.540;19.072;2023-09-18T04:43:16;100821.34;;;19.28;72.90
75497;BME280;64074;47.540;19.072;2023-09-18T04:46:20;100818.25;;;19.42;72.35
75497;BME280;64074;47.540;19.072;2023-09-18T04:49:23;100821.47;;;19.44;72.36
75497;BME280;64074;47.540;19.072;2023-09-18T04:52:27;100821.25;;;19.49;72.12
75497;BME280;64074;47.540;19.072;2023-09-18T04:55:31;100817.13;;;19.55;71.69
75497;BME280;64074;47.540;19.072;2023-09-18T04:58:34;100816.00;;;19.56;71.60
75497;BME280;64074;47.540;19.072;2023-09-18T05:01:40;100818.53;;;19.61;71.51
75497;BME280;64074;47.540;19.072;2023-09-18T05:04:43;100814.63;;;19.62;71.70
75497;BME280;64074;47.540;19.072;2023-09-18T05:07:46;100815.09;;;19.64;71.31
75497;BME280;64074;47.540;19.072;2023-09-18T05:10:50;100813.94;;;19.65;71.47
75497;BME280;64074;47.540;19.072;2023-09-18T05:13:54;100817.13;;;19.43;71.58
75497;BME280;64074;47.540;19.072;2023-09-18T05:16:56;100802.69;;;19.46;71.43
75497;BME280;64074;47.540;19.072;2023-09-18T05:20:00;100805.19;;;19.51;70.88
75497;BME280;64074;47.540;19.072;2023-09-18T05:23:04;100807.63;;;19.64;70.41
75497;BME280;64074;47.540;19.072;2023-09-18T05:26:08;100815.78;;;19.85;70.25
75497;BME280;64074;47.540;19.072;2023-09-18T05:29:11;100811.63;;;19.79;70.06
75497;BME280;64074;47.540;19.072;2023-09-18T05:32:15;100811.31;;;19.69;70.01
75497;BME280;64074;47.540;19.072;2023-09-18T05:35:18;100827.69;;;19.65;70.01
75497;BME280;64074;47.540;19.072;2023-09-18T05:38:21;100822.63;;;19.91;69.22
75497;BME280;64074;47.540;19.072;2023-09-18T05:41:25;100811.88;;;19.86;69.13
75497;BME280;64074;47.540;19.072;2023-09-18T05:44:31;100810.16;;;19.57;69.90
75497;BME280;64074;47.540;19.072;2023-09-18T05:47:37;100802.91;;;19.77;69.56
75497;BME280;64074;47.540;19.072;2023-09-18T05:50:43;100799.91;;;19.82;69.11
75497;BME280;64074;47.540;19.072;2023-09-18T05:53:47;100798.44;;;19.85;69.00
75497;BME280;64074;47.540;19.072;2023-09-18T05:56:51;100790.88;;;19.82;69.08
75497;BME280;64074;47.540;19.072;2023-09-18T05:59:56;100790.38;;;20.04;68.58
75497;BME280;64074;47.540;19.072;2023-09-18T06:03:01;100799.72;;;19.75;69.00
75497;BME280;64074;47.540;19.072;2023-09-18T06:06:05;100791.66;;;19.82;68.93
75497;BME280;64074;47.540;19.072;2023-09-18T06:09:08;100795.56;;;19.81;69.08
75497;BME280;64074;47.540;19.072;2023-09-18T06:12:13;100793.25;;;19.95;68.42
75497;BME280;64074;47.540;19.072;2023-09-18T06:15:19;100791.81;;;19.86;68.54
75497;BME280;64074;47.540;19.072;2023-09-18T06:18:24;100796.59;;;19.89;68.56
75497;BME280;64074;47.540;19.072;2023-09-18T06:21:31;100795.81;;;19.88;68.33
75497;BME280;64074;47.540;19.072;2023-09-18T06:24:40;100791.16;;;20.05;67.83
75497;BME280;64074;47.540;19.072;2023-09-18T06:27:44;100785.13;;;20.27;67.18
75497;BME280;64074;47.540;19.072;2023-09-18T06:30:50;100786.97;;;20.35;66.83
75497;BME280;64074;47.540;19.072;2023-09-18T06:33:54;100787.09;;;20.26;66.66
75497;BME280;64074;47.540;19.072;2023-09-18T06:36:57;100780.97;;;20.45;66.69
75497;BME280;64074;47.540;19.072;2023-09-18T06:40:02;100783.63;;;20.29;66.78
75497;BME280;64074;47.540;19.072;2023-09-18T06:43:09;100784.69;;;20.65;66.43
75497;BME280;64074;47.540;19.072;2023-09-18T06:46:15;100785.63;;;20.57;66.09
75497;BME280;64074;47.540;19.072;2023-09-18T06:49:22;100783.34;;;20.59;66.24
75497;BME280;64074;47.540;19.072;2023-09-18T06:52:30;100782.47;;;20.43;66.51
75497;BME280;64074;47.540;19.072;2023-09-18T06:55:33;100774.94;;;20.55;66.09
75497;BME280;64074;47.540;19.072;2023-09-18T06:58:38;100771.44;;;20.71;65.55
75497;BME280;64074;47.540;19.072;2023-09-18T07:01:44;100773.97;;;20.92;65.37
75497;BME280;64074;47.540;19.072;2023-09-18T07:04:50;100775.03;;;20.87;65.03
75497;BME280;64074;47.540;19.072;2023-09-18T07:08:07;100766.75;;;20.87;65.10
75497;BME280;64074;47.540;19.072;2023-09-18T07:11:16;100772.19;;;20.83;65.33
75497;BME280;64074;47.540;19.072;2023-09-18T07:14:21;100770.50;;;20.95;65.00
75497;BME280;64074;47.540;19.072;2023-09-18T07:17:26;100767.47;;;21.15;64.50
75497;BME280;64074;47.540;19.072;2023-09-18T07:20:31;100766.25;;;21.29;63.83
75497;BME280;64074;47.540;19.072;2023-09-18T07:23:36;100775.41;;;21.17;64.30
75497;BME280;64074;47.540;19.072;2023-09-18T07:26:40;100777.88;;;21.22;64.47
75497;BME280;64074;47.540;19.072;2023-09-18T07:29:44;100771.22;;;21.39;63.63
75497;BME280;64074;47.540;19.072;2023-09-18T07:32:55;100768.03;;;21.37;64.02
75497;BME280;64074;47.540;19.072;2023-09-18T07:36:03;100768.94;;;21.76;63.19
75497;BME280;64074;47.540;19.072;2023-09-18T07:39:10;100772.47;;;21.57;63.08
75497;BME280;64074;47.540;19.072;2023-09-18T07:42:16;100765.94;;;21.65;62.74
75497;BME280;64074;47.540;19.072;2023-09-18T07:45:23;100770.97;;;21.79;62.86
75497;BME280;64074;47.540;19.072;2023-09-18T07:48:28;100770.59;;;21.80;62.67
75497;BME280;64074;47.540;19.072;2023-09-18T07:51:35;100766.97;;;22.12;61.88
75497;BME280;64074;47.540;19.072;2023-09-18T07:54:43;100761.97;;;22.17;61.89
75497;BME280;64074;47.540;19.072;2023-09-18T07:57:48;100770.63;;;22.35;61.76
75497;BME280;64074;47.540;19.072;2023-09-18T08:00:57;100770.63;;;22.00;62.11
75497;BME280;64074;47.540;19.072;2023-09-18T08:04:05;100761.81;;;22.10;61.91
75497;BME280;64074;47.540;19.072;2023-09-18T08:07:08;100760.88;;;22.22;61.49
75497;BME280;64074;47.540;19.072;2023-09-18T08:10:13;100751.47;;;22.46;60.75
75497;BME280;64074;47.540;19.072;2023-09-18T08:13:32;100749.50;;;22.46;60.98
75497;BME280;64074;47.540;19.072;2023-09-18T08:16:40;100743.19;;;22.46;60.75
75497;BME280;64074;47.540;19.072;2023-09-18T08:19:45;100745.56;;;22.66;59.95
75497;BME280;64074;47.540;19.072;2023-09-18T08:22:50;100729.03;;;22.70;60.34
75497;BME280;64074;47.540;19.072;2023-09-18T08:25:55;100727.31;;;22.62;60.17
75497;BME280;64074;47.540;19.072;2023-09-18T08:29:01;100725.13;;;22.94;59.85
75497;BME280;64074;47.540;19.072;2023-09-18T08:32:09;100718.28;;;23.33;59.16
75497;BME280;64074;47.540;19.072;2023-09-18T08:35:14;100719.97;;;23.15;59.22
75497;BME280;64074;47.540;19.072;2023-09-18T08:38:41;100718.09;;;23.23;58.63
75497;BME280;64074;47.540;19.072;2023-09-18T08:47:18;100712.75;;;23.90;57.67
75497;BME280;64074;47.540;19.072;2023-09-18T08:50:38;100713.50;;;23.57;58.41
75497;BME280;64074;47.540;19.072;2023-09-18T08:54:35;100709.59;;;23.35;59.19
75497;BME280;64074;47.540;19.072;2023-09-18T08:57:42;100711.53;;;23.57;58.37
75497;BME280;64074;47.540;19.072;2023-09-18T09:00:46;100699.50;;;24.06;57.55
75497;BME280;64074;47.540;19.072;2023-09-18T09:03:51;100712.00;;;23.93;57.29
75497;BME280;64074;47.540;19.072;2023-09-18T09:06:55;100713.16;;;24.25;56.64
75497;BME280;64074;47.540;19.072;2023-09-18T09:10:04;100713.81;;;24.12;56.79
75497;BME280;64074;47.540;19.072;2023-09-18T09:13:08;100720.41;;;24.30;56.25
75497;BME280;64074;47.540;19.072;2023-09-18T09:16:13;100717.41;;;24.49;55.69
75497;BME280;64074;47.540;19.072;2023-09-18T09:19:29;100715.72;;;24.78;55.20
75497;BME280;64074;47.540;19.072;2023-09-18T09:27:43;100705.63;;;25.00;54.63
75497;BME280;64074;47.540;19.072;2023-09-18T09:30:48;100703.50;;;25.34;54.09
75497;BME280;64074;47.540;19.072;2023-09-18T09:33:53;100701.63;;;24.98;54.17
75497;BME280;64074;47.540;19.072;2023-09-18T09:37:03;100698.38;;;25.40;53.31
75497;BME280;64074;47.540;19.072;2023-09-18T09:40:15;100710.31;;;24.96;54.08
75497;BME280;64074;47.540;19.072;2023-09-18T09:43:55;100697.06;;;25.20;53.39
75497;BME280;64074;47.540;19.072;2023-09-18T09:46:59;100701.53;;;25.35;52.95
75497;BME280;64074;47.540;19.072;2023-09-18T09:50:11;100693.56;;;25.30;53.06
75497;BME280;64074;47.540;19.072;2023-09-18T09:53:43;100684.81;;;25.28;53.03
75497;BME280;64074;47.540;19.072;2023-09-18T09:57:10;100681.31;;;25.34;52.42
75497;BME280;64074;47.540;19.072;2023-09-18T10:00:15;100669.94;;;25.61;52.41
75497;BME280;64074;47.540;19.072;2023-09-18T10:03:40;100679.06;;;25.61;51.70
75497;BME280;64074;47.540;19.072;2023-09-18T10:07:01;100656.47;;;25.59;51.82
75497;BME280;64074;47.540;19.072;2023-09-18T10:10:13;100655.66;;;25.59;52.22
75497;BME280;64074;47.540;19.072;2023-09-18T10:17:01;100656.19;;;25.82;51.38
75497;BME280;64074;47.540;19.072;2023-09-18T10:20:23;100649.94;;;26.14;50.37
75497;BME280;64074;47.540;19.072;2023-09-18T10:27:21;100642.47;;;26.92;48.31
75497;BME280;64074;47.540;19.072;2023-09-18T10:30:32;100631.75;;;26.66;48.59
75497;BME280;64074;47.540;19.072;2023-09-18T10:33:39;100623.78;;;26.68;49.17
75497;BME280;64074;47.540;19.072;2023-09-18T10:36:49;100616.22;;;26.76;48.71
75497;BME280;64074;47.540;19.072;2023-09-18T10:39:54;100618.25;;;26.64;48.72
75497;BME280;64074;47.540;19.072;2023-09-18T10:43:02;100610.69;;;26.61;49.11
75497;BME280;64074;47.540;19.072;2023-09-18T10:46:09;100607.88;;;26.90;48.07
75497;BME280;64074;47.540;19.072;2023-09-18T10:49:14;100601.53;;;26.68;48.41
75497;BME280;64074;47.540;19.072;2023-09-18T10:52:18;100592.38;;;26.89;48.34
75497;BME280;64074;47.540;19.072;2023-09-18T10:55:22;100582.84;;;27.04;48.21
75497;BME280;64074;47.540;19.072;2023-09-18T10:58:27;100579.63;;;27.13;47.63
75497;BME280;64074;47.540;19.072;2023-09-18T11:01:33;100586.00;;;26.95;47.98
75497;BME280;64074;47.540;19.072;2023-09-18T11:04:56;100587.59;;;27.14;47.64
75497;BME280;64074;47.540;19.072;2023-09-18T11:09:11;100584.72;;;27.39;47.13
75497;BME280;64074;47.540;19.072;2023-09-18T11:12:45;100576.44;;;27.14;48.03
75497;BME280;64074;47.540;19.072;2023-09-18T11:15:50;100573.09;;;27.62;46.76
75497;BME280;64074;47.540;19.072;2023-09-18T11:22:25;100559.97;;;27.59;46.49
75497;BME280;64074;47.540;19.072;2023-09-18T11:25:42;100550.19;;;28.03;46.14
75497;BME280;64074;47.540;19.072;2023-09-18T11:29:05;100554.69;;;27.82;46.49
75497;BME280;64074;47.540;19.072;2023-09-18T11:32:13;100552.56;;;28.01;45.44
75497;BME280;64074;47.540;19.072;2023-09-18T11:35:25;100549.84;;;27.90;45.83
75497;BME280;64074;47.540;19.072;2023-09-18T11:38:51;100542.94;;;28.12;45.41
75497;BME280;64074;47.540;19.072;2023-09-18T11:42:11;100545.03;;;27.94;45.79
75497;BME280;64074;47.540;19.072;2023-09-18T11:45:18;100537.44;;;28.02;45.60
75497;BME280;64074;47.540;19.072;2023-09-18T11:48:24;100541.91;;;27.88;45.34
75497;BME280;64074;47.540;19.072;2023-09-18T11:51:37;100530.09;;;28.29;44.89
75497;BME280;64074;47.540;19.072;2023-09-18T11:55:03;100514.53;;;28.32;44.46
75497;BME280;64074;47.540;19.072;2023-09-18T11:58:22;100516.34;;;28.53;44.17
75497;BME280;64074;47.540;19.072;2023-09-18T12:01:52;100510.19;;;28.20;44.31
75497;BME280;64074;47.540;19.072;2023-09-18T12:05:18;100502.00;;;27.99;44.63
75497;BME280;64074;47.540;19.072;2023-09-18T12:08:31;100498.22;;;28.68;43.50
75497;BME280;64074;47.540;19.072;2023-09-18T12:11:35;100502.22;;;28.22;43.70
75497;BME280;64074;47.540;19.072;2023-09-18T12:14:41;100492.06;;;28.46;43.09
75497;BME280;64074;47.540;19.072;2023-09-18T12:17:48;100490.09;;;28.43;42.85
75497;BME280;64074;47.540;19.072;2023-09-18T12:20:53;100497.84;;;28.66;43.09
75497;BME280;64074;47.540;19.072;2023-09-18T12:23:56;100498.06;;;28.86;41.90
75497;BME280;64074;47.540;19.072;2023-09-18T12:27:00;100484.13;;;29.16;41.51
75497;BME280;64074;47.540;19.072;2023-09-18T12:30:05;100488.69;;;29.64;40.66
75497;BME280;64074;47.540;19.072;2023-09-18T12:33:10;100491.06;;;29.65;39.31
75497;BME280;64074;47.540;19.072;2023-09-18T12:36:19;100473.31;;;30.49;38.71
75497;BME280;64074;47.540;19.072;2023-09-18T12:39:23;100468.09;;;31.50;36.83
75497;BME280;64074;47.540;19.072;2023-09-18T12:42:35;100471.09;;;32.08;36.04
75497;BME280;64074;47.540;19.072;2023-09-18T12:45:40;100467.38;;;30.00;38.55
75497;BME280;64074;47.540;19.072;2023-09-18T12:48:45;100454.88;;;30.75;37.37
75497;BME280;64074;47.540;19.072;2023-09-18T12:51:57;100455.69;;;32.00;35.27
75497;BME280;64074;47.540;19.072;2023-09-18T12:55:21;100447.56;;;31.73;34.99
75497;BME280;64074;47.540;19.072;2023-09-18T12:59:03;100452.41;;;31.17;36.52
75497;BME280;64074;47.540;19.072;2023-09-18T13:02:24;100443.69;;;30.09;38.45
75497;BME280;64074;47.540;19.072;2023-09-18T13:05:35;100440.59;;;30.03;38.87
75497;BME280;64074;47.540;19.072;2023-09-18T13:19:42;100426.38;;;31.52;35.51
75497;BME280;64074;47.540;19.072;2023-09-18T13:22:51;100416.03;;;32.14;34.14
75497;BME280;64074;47.540;19.072;2023-09-18T13:25:59;100422.16;;;31.44;35.46
75497;BME280;64074;47.540;19.072;2023-09-18T13:29:03;100415.78;;;31.60;35.28
75497;BME280;64074;47.540;19.072;2023-09-18T13:32:08;100413.25;;;31.49;35.64
75497;BME280;64074;47.540;19.072;2023-09-18T13:35:11;100406.31;;;31.54;34.89
75497;BME280;64074;47.540;19.072;2023-09-18T13:38:17;100398.53;;;31.62;35.49
75497;BME280;64074;47.540;19.072;2023-09-18T13:41:21;100387.31;;;31.09;36.46
75497;BME280;64074;47.540;19.072;2023-09-18T13:44:24;100381.69;;;31.45;35.85
75497;BME280;64074;47.540;19.072;2023-09-18T13:47:29;100379.47;;;30.65;36.96
75497;BME280;64074;47.540;19.072;2023-09-18T13:50:35;100376.47;;;30.75;36.92
75497;BME280;64074;47.540;19.072;2023-09-18T13:53:40;100374.16;;;30.70;36.77
75497;BME280;64074;47.540;19.072;2023-09-18T13:56:49;100370.31;;;31.52;35.65
75497;BME280;64074;47.540;19.072;2023-09-18T13:59:57;100360.66;;;30.25;37.12
75497;BME280;64074;47.540;19.072;2023-09-18T14:03:09;100365.84;;;30.67;37.36
75497;BME280;64074;47.540;19.072;2023-09-18T14:06:25;100362.03;;;30.37;37.16
75497;BME280;64074;47.540;19.072;2023-09-18T14:09:29;100349.25;;;29.93;38.33
75497;BME280;64074;47.540;19.072;2023-09-18T14:12:33;100348.47;;;29.69;38.96
75497;BME280;64074;47.540;19.072;2023-09-18T14:15:36;100342.44;;;29.94;38.41
75497;BME280;64074;47.540;19.072;2023-09-18T14:18:43;100345.94;;;30.21;37.83
75497;BME280;64074;47.540;19.072;2023-09-18T14:21:47;100332.25;;;31.03;36.52
75497;BME280;64074;47.540;19.072;2023-09-18T14:25:07;100324.16;;;31.41;35.31
75497;BME280;64074;47.540;19.072;2023-09-18T14:28:11;100324.09;;;32.35;33.98
75497;BME280;64074;47.540;19.072;2023-09-18T14:31:16;100330.47;;;30.92;35.87
75497;BME280;64074;47.540;19.072;2023-09-18T14:34:20;100322.88;;;29.70;38.34
75497;BME280;64074;47.540;19.072;2023-09-18T14:37:23;100325.09;;;29.59;38.78
75497;BME280;64074;47.540;19.072;2023-09-18T14:40:27;100318.69;;;29.08;39.07
75497;BME280;64074;47.540;19.072;2023-09-18T14:43:33;100321.00;;;28.87;39.67
75497;BME280;64074;47.540;19.072;2023-09-18T14:46:38;100319.81;;;28.84;40.12
75497;BME280;64074;47.540;19.072;2023-09-18T14:49:41;100316.91;;;28.64;40.28
75497;BME280;64074;47.540;19.072;2023-09-18T14:52:45;100315.69;;;28.65;40.07
75497;BME280;64074;47.540;19.072;2023-09-18T14:55:48;100304.47;;;28.99;39.67
75497;BME280;64074;47.540;19.072;2023-09-18T14:58:52;100306.88;;;28.97;39.51
75497;BME280;64074;47.540;19.072;2023-09-18T15:01:56;100302.28;;;29.37;39.03
75497;BME280;64074;47.540;19.072;2023-09-18T15:04:59;100311.69;;;28.97;39.10
75497;BME280;64074;47.540;19.072;2023-09-18T15:08:03;100301.41;;;29.17;39.07
75497;BME280;64074;47.540;19.072;2023-09-18T15:11:07;100299.22;;;29.05;39.25
75497;BME280;64074;47.540;19.072;2023-09-18T15:14:11;100300.00;;;28.75;39.72
75497;BME280;64074;47.540;19.072;2023-09-18T15:17:15;100297.38;;;28.64;39.85
75497;BME280;64074;47.540;19.072;2023-09-18T15:20:19;100294.69;;;28.84;39.71
75497;BME280;64074;47.540;19.072;2023-09-18T15:23:27;100289.72;;;28.68;40.22
75497;BME280;64074;47.540;19.072;2023-09-18T15:26:32;100286.44;;;28.46;40.20
75497;BME280;64074;47.540;19.072;2023-09-18T15:29:36;100272.50;;;28.46;40.52
75497;BME280;64074;47.540;19.072;2023-09-18T15:32:48;100274.25;;;28.64;40.13
75497;BME280;64074;47.540;19.072;2023-09-18T15:35:57;100260.16;;;28.44;40.31
75497;BME280;64074;47.540;19.072;2023-09-18T15:39:00;100260.16;;;28.44;40.25
75497;BME280;64074;47.540;19.072;2023-09-18T15:42:05;100250.00;;;28.30;40.57
75497;BME280;64074;47.540;19.072;2023-09-18T15:45:09;100244.44;;;28.30;40.58
75497;BME280;64074;47.540;19.072;2023-09-18T15:48:15;100223.50;;;28.45;40.86
75497;BME280;64074;47.540;19.072;2023-09-18T15:51:20;100222.00;;;28.37;40.59
75497;BME280;64074;47.540;19.072;2023-09-18T15:54:24;100215.13;;;28.45;40.58
75497;BME280;64074;47.540;19.072;2023-09-18T15:57:31;100228.19;;;28.52;40.67
75497;BME280;64074;47.540;19.072;2023-09-18T16:00:35;100218.66;;;28.49;40.98
75497;BME280;64074;47.540;19.072;2023-09-18T16:03:40;100225.34;;;28.25;41.57
75497;BME280;64074;47.540;19.072;2023-09-18T16:06:51;100231.78;;;28.18;42.04
75497;BME280;64074;47.540;19.072;2023-09-18T16:09:56;100212.47;;;28.04;42.03
75497;BME280;64074;47.540;19.072;2023-09-18T16:13:00;100211.00;;;27.93;42.14
75497;BME280;64074;47.540;19.072;2023-09-18T16:16:03;100202.69;;;27.89;42.63
75497;BME280;64074;47.540;19.072;2023-09-18T16:19:07;100205.06;;;27.91;42.40
75497;BME280;64074;47.540;19.072;2023-09-18T16:22:10;100207.19;;;27.79;42.58
75497;BME280;64074;47.540;19.072;2023-09-18T16:25:14;100198.47;;;27.77;42.78
75497;BME280;64074;47.540;19.072;2023-09-18T16:28:17;100196.28;;;27.92;42.53
75497;BME280;64074;47.540;19.072;2023-09-18T16:31:21;100192.09;;;27.77;42.96
75497;BME280;64074;47.540;19.072;2023-09-18T16:34:24;100180.78;;;27.53;43.32
75497;BME280;64074;47.540;19.072;2023-09-18T16:37:28;100181.22;;;27.52;43.33
75497;BME280;64074;47.540;19.072;2023-09-18T16:40:31;100186.31;;;27.57;43.15
75497;BME280;64074;47.540;19.072;2023-09-18T16:43:37;100180.38;;;27.55;43.28